sensor_id;sensor_type;location;lat;lon;timestamp;pressure;altitude;pressure_sealevel;temperature;humidity
77867;BME280;67271;59.120;37.970;2024-01-30T00:02:28;100509.50;;;1.14;78.13
77867;BME280;67271;59.120;37.970;2024-01-30T00:04:53;100505.16;;;1.13;78.34
77867;BME280;67271;59.120;37.970;2024-01-30T00:07:19;100484.84;;;1.12;78.52
77867;BME280;67271;59.120;37.970;2024-01-30T00:09:47;100478.78;;;1.10;78.40
77867;BME280;67271;59.120;37.970;2024-01-30T00:12:13;100499.38;;;1.08;78.23
77867;BME280;67271;59.120;37.970;2024-01-30T00:14:41;100493.19;;;1.08;78.17
77867;BME280;67271;59.120;37.970;2024-01-30T00:17:08;100506.50;;;1.08;78.37
77867;BME280;67271;59.120;37.970;2024-01-30T00:19:34;100533.03;;;1.09;78.57
77867;BME280;67271;59.120;37.970;2024-01-30T00:22:00;100550.72;;;1.10;77.80
77867;BME280;67271;59.120;37.970;2024-01-30T00:24:26;100542.72;;;1.10;78.62
77867;BME280;67271;59.120;37.970;2024-01-30T00:26:51;100549.75;;;1.11;78.20
77867;BME280;67271;59.120;37.970;2024-01-30T00:29:18;100556.06;;;1.10;78.18
77867;BME280;67271;59.120;37.970;2024-01-30T00:31:45;100550.44;;;1.13;78.24
77867;BME280;67271;59.120;37.970;2024-01-30T00:34:11;100552.16;;;1.14;78.55
77867;BME280;67271;59.120;37.970;2024-01-30T00:36:37;100548.63;;;1.14;78.49
77867;BME280;67271;59.120;37.970;2024-01-30T00:39:03;100546.94;;;1.13;78.18
77867;BME280;67271;59.120;37.970;2024-01-30T00:41:32;100546.81;;;1.14;78.23
77867;BME280;67271;59.120;37.970;2024-01-30T00:43:58;100550.22;;;1.16;78.08
77867;BME280;67271;59.120;37.970;2024-01-30T00:46:24;100559.91;;;1.17;78.34
77867;BME280;67271;59.120;37.970;2024-01-30T00:48:50;100565.25;;;1.17;77.89
77867;BME280;67271;59.120;37.970;2024-01-30T00:51:15;100564.50;;;1.15;78.25
77867;BME280;67271;59.120;37.970;2024-01-30T00:53:41;100560.03;;;1.16;78.28
77867;BME280;67271;59.120;37.970;2024-01-30T00:56:07;100566.22;;;1.16;78.49
77867;BME280;67271;59.120;37.970;2024-01-30T00:58:33;100562.56;;;1.17;78.46
77867;BME280;67271;59.120;37.970;2024-01-30T01:00:59;100553.59;;;1.19;78.00
77867;BME280;67271;59.120;37.970;2024-01-30T01:03:25;100545.63;;;1.19;78.65
77867;BME280;67271;59.120;37.970;2024-01-30T01:05:51;100554.47;;;1.19;78.33
77867;BME280;67271;59.120;37.970;2024-01-30T01:08:17;100537.63;;;1.19;78.61
77867;BME280;67271;59.120;37.970;2024-01-30T01:10:43;100537.63;;;1.19;78.29
77867;BME280;67271;59.120;37.970;2024-01-30T01:13:09;100548.41;;;1.17;78.17
77867;BME280;67271;59.120;37.970;2024-01-30T01:15:35;100558.34;;;1.15;78.72
77867;BME280;67271;59.120;37.970;2024-01-30T01:18:01;100566.59;;;1.12;78.41
77867;BME280;67271;59.120;37.970;2024-01-30T01:20:27;100566.84;;;1.09;78.69
77867;BME280;67271;59.120;37.970;2024-01-30T01:22:53;100559.69;;;1.09;78.33
77867;BME280;67271;59.120;37.970;2024-01-30T01:25:19;100566.22;;;1.05;78.94
77867;BME280;67271;59.120;37.970;2024-01-30T01:27:45;100579.44;;;1.07;78.86
77867;BME280;67271;59.120;37.970;2024-01-30T01:30:17;100566.09;;;1.07;78.60
77867;BME280;67271;59.120;37.970;2024-01-30T01:32:48;100562.34;;;1.09;79.12
77867;BME280;67271;59.120;37.970;2024-01-30T01:35:21;100563.31;;;1.08;79.08
77867;BME280;67271;59.120;37.970;2024-01-30T01:37:48;100554.59;;;1.06;78.70
77867;BME280;67271;59.120;37.970;2024-01-30T01:40:27;100567.91;;;1.06;78.89
77867;BME280;67271;59.120;37.970;2024-01-30T01:42:54;100556.56;;;1.04;78.69
77867;BME280;67271;59.120;37.970;2024-01-30T01:45:21;100566.50;;;1.02;78.96
77867;BME280;67271;59.120;37.970;2024-01-30T01:47:51;100555.84;;;1.02;79.02
77867;BME280;67271;59.120;37.970;2024-01-30T01:50:17;100557.66;;;1.02;79.23
77867;BME280;67271;59.120;37.970;2024-01-30T01:52:49;100555.09;;;1.00;79.42
77867;BME280;67271;59.120;37.970;2024-01-30T01:55:16;100550.06;;;0.97;79.13
77867;BME280;67271;59.120;37.970;2024-01-30T01:57:47;100555.22;;;0.99;78.98
77867;BME280;67271;59.120;37.970;2024-01-30T02:00:14;100568.44;;;1.00;79.38
77867;BME280;67271;59.120;37.970;2024-01-30T02:02:39;100562.13;;;1.01;79.24
77867;BME280;67271;59.120;37.970;2024-01-30T02:05:08;100560.19;;;1.03;79.07
77867;BME280;67271;59.120;37.970;2024-01-30T02:07:34;100562.59;;;1.06;79.39
77867;BME280;67271;59.120;37.970;2024-01-30T02:10:00;100572.41;;;1.06;79.04
77867;BME280;67271;59.120;37.970;2024-01-30T02:12:26;100568.88;;;1.05;79.23
77867;BME280;67271;59.120;37.970;2024-01-30T02:14:51;100559.94;;;1.06;79.41
77867;BME280;67271;59.120;37.970;2024-01-30T02:17:19;100561.16;;;1.02;79.45
77867;BME280;67271;59.120;37.970;2024-01-30T02:19:44;100570.13;;;1.01;79.11
77867;BME280;67271;59.120;37.970;2024-01-30T02:22:10;100570.00;;;1.03;79.51
77867;BME280;67271;59.120;37.970;2024-01-30T02:24:36;100576.19;;;1.03;79.15
77867;BME280;67271;59.120;37.970;2024-01-30T02:27:02;100569.03;;;1.04;79.47
77867;BME280;67271;59.120;37.970;2024-01-30T02:29:28;100573.63;;;1.02;79.14
77867;BME280;67271;59.120;37.970;2024-01-30T02:31:54;100574.59;;;1.01;79.15
77867;BME280;67271;59.120;37.970;2024-01-30T02:34:20;100582.25;;;0.94;79.13
77867;BME280;67271;59.120;37.970;2024-01-30T02:36:46;100585.16;;;0.91;79.17
77867;BME280;67271;59.120;37.970;2024-01-30T02:39:12;100590.47;;;0.91;79.68
77867;BME280;67271;59.120;37.970;2024-01-30T02:41:38;100579.13;;;0.89;79.40
77867;BME280;67271;59.120;37.970;2024-01-30T02:44:04;100598.63;;;0.90;79.70
77867;BME280;67271;59.120;37.970;2024-01-30T02:46:30;100597.63;;;0.91;79.29
77867;BME280;67271;59.120;37.970;2024-01-30T02:48:55;100599.09;;;0.95;79.77
77867;BME280;67271;59.120;37.970;2024-01-30T02:51:21;100603.44;;;0.96;79.62
77867;BME280;67271;59.120;37.970;2024-01-30T02:53:47;100602.34;;;0.98;79.43
77867;BME280;67271;59.120;37.970;2024-01-30T02:56:13;100608.66;;;0.97;79.52
77867;BME280;67271;59.120;37.970;2024-01-30T02:58:40;100601.38;;;0.99;79.71
77867;BME280;67271;59.120;37.970;2024-01-30T03:01:06;100609.00;;;1.04;79.49
77867;BME280;67271;59.120;37.970;2024-01-30T03:03:32;100621.84;;;1.10;79.39
77867;BME280;67271;59.120;37.970;2024-01-30T03:06:00;100632.09;;;1.14;79.25
77867;BME280;67271;59.120;37.970;2024-01-30T03:08:26;100626.41;;;1.19;79.50
77867;BME280;67271;59.120;37.970;2024-01-30T03:10:52;100617.56;;;1.19;79.39
77867;BME280;67271;59.120;37.970;2024-01-30T03:13:18;100615.59;;;1.21;79.22
77867;BME280;67271;59.120;37.970;2024-01-30T03:15:44;100628.69;;;1.24;79.38
77867;BME280;67271;59.120;37.970;2024-01-30T03:18:10;100634.75;;;1.26;79.39
77867;BME280;67271;59.120;37.970;2024-01-30T03:20:36;100622.41;;;1.25;78.94
77867;BME280;67271;59.120;37.970;2024-01-30T03:23:01;100634.03;;;1.24;79.37
77867;BME280;67271;59.120;37.970;2024-01-30T03:25:28;100631.59;;;1.21;79.35
77867;BME280;67271;59.120;37.970;2024-01-30T03:27:54;100626.53;;;1.17;79.42
77867;BME280;67271;59.120;37.970;2024-01-30T03:30:19;100631.13;;;1.15;79.76
77867;BME280;67271;59.120;37.970;2024-01-30T03:32:45;100656.09;;;1.14;79.36
77867;BME280;67271;59.120;37.970;2024-01-30T03:35:11;100649.06;;;1.13;79.77
77867;BME280;67271;59.120;37.970;2024-01-30T03:37:37;100639.13;;;1.15;79.38
77867;BME280;67271;59.120;37.970;2024-01-30T03:40:03;100641.22;;;1.12;79.21
77867;BME280;67271;59.120;37.970;2024-01-30T03:42:29;100644.84;;;1.11;79.39
77867;BME280;67271;59.120;37.970;2024-01-30T03:44:56;100665.44;;;1.09;79.74
77867;BME280;67271;59.120;37.970;2024-01-30T03:47:22;100668.94;;;1.09;79.69
77867;BME280;67271;59.120;37.970;2024-01-30T03:49:48;100677.69;;;1.11;79.51
77867;BME280;67271;59.120;37.970;2024-01-30T03:52:13;100675.00;;;1.11;79.27
77867;BME280;67271;59.120;37.970;2024-01-30T03:54:40;100675.00;;;1.11;79.39
77867;BME280;67271;59.120;37.970;2024-01-30T03:57:05;100667.13;;;1.10;79.73
77867;BME280;67271;59.120;37.970;2024-01-30T03:59:31;100686.63;;;1.10;79.30
77867;BME280;67271;59.120;37.970;2024-01-30T04:01:57;100678.88;;;1.07;79.58
77867;BME280;67271;59.120;37.970;2024-01-30T04:04:23;100679.38;;;1.01;79.82
77867;BME280;67271;59.120;37.970;2024-01-30T04:06:49;100680.47;;;0.99;79.83
77867;BME280;67271;59.120;37.970;2024-01-30T04:09:15;100688.72;;;0.96;79.85
77867;BME280;67271;59.120;37.970;2024-01-30T04:11:41;100698.41;;;0.97;79.82
77867;BME280;67271;59.120;37.970;2024-01-30T04:14:08;100700.81;;;1.00;79.95
77867;BME280;67271;59.120;37.970;2024-01-30T04:16:34;100713.06;;;1.02;79.92
77867;BME280;67271;59.120;37.970;2024-01-30T04:19:00;100716.19;;;1.07;79.86
77867;BME280;67271;59.120;37.970;2024-01-30T04:21:26;100716.19;;;1.07;79.40
77867;BME280;67271;59.120;37.970;2024-01-30T04:23:52;100711.13;;;1.04;79.78
77867;BME280;67271;59.120;37.970;2024-01-30T04:26:17;100723.72;;;1.02;79.53
77867;BME280;67271;59.120;37.970;2024-01-30T04:28:46;100731.09;;;0.99;80.09
77867;BME280;67271;59.120;37.970;2024-01-30T04:31:12;100743.94;;;0.94;80.18
77867;BME280;67271;59.120;37.970;2024-01-30T04:33:38;100768.97;;;0.91;80.20
77867;BME280;67271;59.120;37.970;2024-01-30T04:36:08;100750.34;;;0.91;79.90
77867;BME280;67271;59.120;37.970;2024-01-30T04:38:35;100760.03;;;0.92;80.21
77867;BME280;67271;59.120;37.970;2024-01-30T04:41:02;100757.38;;;0.92;79.83
77867;BME280;67271;59.120;37.970;2024-01-30T04:43:27;100765.34;;;0.92;80.06
77867;BME280;67271;59.120;37.970;2024-01-30T04:45:53;100776.97;;;0.91;80.10
77867;BME280;67271;59.120;37.970;2024-01-30T04:48:19;100774.47;;;0.90;80.30
77867;BME280;67271;59.120;37.970;2024-01-30T04:50:45;100783.16;;;0.92;80.26
77867;BME280;67271;59.120;37.970;2024-01-30T04:53:11;100785.59;;;0.95;79.88
77867;BME280;67271;59.120;37.970;2024-01-30T04:55:37;100796.38;;;0.93;79.97
77867;BME280;67271;59.120;37.970;2024-01-30T04:58:02;100797.31;;;0.92;80.20
77867;BME280;67271;59.120;37.970;2024-01-30T05:00:28;100793.97;;;0.90;80.25
77867;BME280;67271;59.120;37.970;2024-01-30T05:02:57;100801.94;;;0.90;79.78
77867;BME280;67271;59.120;37.970;2024-01-30T05:05:23;100800.25;;;0.89;79.86
77867;BME280;67271;59.120;37.970;2024-01-30T05:07:49;100799.41;;;0.89;80.07
77867;BME280;67271;59.120;37.970;2024-01-30T05:10:15;100795.03;;;0.88;79.99
77867;BME280;67271;59.120;37.970;2024-01-30T05:12:40;100789.94;;;0.85;79.86
77867;BME280;67271;59.120;37.970;2024-01-30T05:15:07;100788.59;;;0.79;80.45
77867;BME280;67271;59.120;37.970;2024-01-30T05:17:33;100785.44;;;0.74;80.07
77867;BME280;67271;59.120;37.970;2024-01-30T05:19:59;100791.13;;;0.69;79.95
77867;BME280;67271;59.120;37.970;2024-01-30T05:22:25;100793.78;;;0.69;80.26
77867;BME280;67271;59.120;37.970;2024-01-30T05:24:50;100785.19;;;0.66;80.13
77867;BME280;67271;59.120;37.970;2024-01-30T05:27:16;100788.69;;;0.66;80.57
77867;BME280;67271;59.120;37.970;2024-01-30T05:29:42;100793.88;;;0.68;80.28
77867;BME280;67271;59.120;37.970;2024-01-30T05:32:08;100799.47;;;0.65;80.04
77867;BME280;67271;59.120;37.970;2024-01-30T05:34:35;100800.91;;;0.69;80.29
77867;BME280;67271;59.120;37.970;2024-01-30T05:37:01;100810.13;;;0.76;79.84
77867;BME280;67271;59.120;37.970;2024-01-30T05:39:27;100801.53;;;0.72;80.31
77867;BME280;67271;59.120;37.970;2024-01-30T05:41:52;100809.88;;;0.68;80.24
77867;BME280;67271;59.120;37.970;2024-01-30T05:44:18;100802.25;;;0.63;80.09
77867;BME280;67271;59.120;37.970;2024-01-30T05:46:44;100794.38;;;0.62;80.01
77867;BME280;67271;59.120;37.970;2024-01-30T05:49:11;100792.91;;;0.58;79.99
77867;BME280;67271;59.120;37.970;2024-01-30T05:51:37;100792.41;;;0.53;80.38
77867;BME280;67271;59.120;37.970;2024-01-30T05:54:03;100796.75;;;0.54;80.24
77867;BME280;67271;59.120;37.970;2024-01-30T05:56:30;100798.25;;;0.58;79.99
77867;BME280;67271;59.120;37.970;2024-01-30T05:58:55;100803.69;;;0.56;79.93
77867;BME280;67271;59.120;37.970;2024-01-30T06:01:21;100804.88;;;0.52;80.49
77867;BME280;67271;59.120;37.970;2024-01-30T06:03:47;100817.09;;;0.55;80.37
77867;BME280;67271;59.120;37.970;2024-01-30T06:06:13;100810.59;;;0.59;80.30
77867;BME280;67271;59.120;37.970;2024-01-30T06:08:39;100817.38;;;0.63;79.79
77867;BME280;67271;59.120;37.970;2024-01-30T06:11:05;100824.41;;;0.64;80.08
77867;BME280;67271;59.120;37.970;2024-01-30T06:13:31;100831.31;;;0.66;79.99
77867;BME280;67271;59.120;37.970;2024-01-30T06:15:57;100840.25;;;0.65;79.80
77867;BME280;67271;59.120;37.970;2024-01-30T06:18:23;100839.06;;;0.69;80.04
77867;BME280;67271;59.120;37.970;2024-01-30T06:20:49;100849.22;;;0.75;79.89
77867;BME280;67271;59.120;37.970;2024-01-30T06:23:15;100846.72;;;0.74;79.57
77867;BME280;67271;59.120;37.970;2024-01-30T06:25:41;100856.72;;;0.70;80.25
77867;BME280;67271;59.120;37.970;2024-01-30T06:28:07;100863.66;;;0.73;80.12
77867;BME280;67271;59.120;37.970;2024-01-30T06:30:32;100860.94;;;0.62;79.63
77867;BME280;67271;59.120;37.970;2024-01-30T06:32:58;100875.00;;;0.64;80.40
77867;BME280;67271;59.120;37.970;2024-01-30T06:35:24;100871.00;;;0.69;79.85
77867;BME280;67271;59.120;37.970;2024-01-30T06:37:51;100866.31;;;0.73;79.76
77867;BME280;67271;59.120;37.970;2024-01-30T06:40:16;100878.88;;;0.71;79.77
77867;BME280;67271;59.120;37.970;2024-01-30T06:42:42;100866.53;;;0.70;79.66
77867;BME280;67271;59.120;37.970;2024-01-30T06:45:09;100882.28;;;0.73;80.03
77867;BME280;67271;59.120;37.970;2024-01-30T06:47:35;100881.81;;;0.79;79.67
77867;BME280;67271;59.120;37.970;2024-01-30T06:50:00;100888.00;;;0.80;79.42
77867;BME280;67271;59.120;37.970;2024-01-30T06:52:27;100875.88;;;0.75;79.49
77867;BME280;67271;59.120;37.970;2024-01-30T06:54:53;100880.38;;;0.75;79.96
77867;BME280;67271;59.120;37.970;2024-01-30T06:57:20;100879.06;;;0.81;79.63
77867;BME280;67271;59.120;37.970;2024-01-30T06:59:46;100865.75;;;0.92;79.38
77867;BME280;67271;59.120;37.970;2024-01-30T07:02:12;100877.03;;;0.95;79.13
77867;BME280;67271;59.120;37.970;2024-01-30T07:04:38;100870.84;;;0.95;79.49
77867;BME280;67271;59.120;37.970;2024-01-30T07:07:05;100876.56;;;0.90;79.67
77867;BME280;67271;59.120;37.970;2024-01-30T07:09:31;100869.97;;;0.83;79.59
77867;BME280;67271;59.120;37.970;2024-01-30T07:11:57;100870.53;;;0.75;80.02
77867;BME280;67271;59.120;37.970;2024-01-30T07:14:25;100877.44;;;0.67;80.18
77867;BME280;67271;59.120;37.970;2024-01-30T07:16:51;100875.09;;;0.62;80.32
77867;BME280;67271;59.120;37.970;2024-01-30T07:19:17;100886.59;;;0.63;79.89
77867;BME280;67271;59.120;37.970;2024-01-30T07:21:43;100886.38;;;0.66;80.11
77867;BME280;67271;59.120;37.970;2024-01-30T07:24:09;100879.25;;;0.66;80.09
77867;BME280;67271;59.120;37.970;2024-01-30T07:26:35;100882.03;;;0.65;79.88
77867;BME280;67271;59.120;37.970;2024-01-30T07:29:01;100891.72;;;0.66;80.13
77867;BME280;67271;59.120;37.970;2024-01-30T07:31:27;100885.66;;;0.64;80.22
77867;BME280;67271;59.120;37.970;2024-01-30T07:33:53;100886.13;;;0.58;80.47
77867;BME280;67271;59.120;37.970;2024-01-30T07:36:20;100904.38;;;0.51;80.15
77867;BME280;67271;59.120;37.970;2024-01-30T07:38:46;100907.34;;;0.47;80.38
77867;BME280;67271;59.120;37.970;2024-01-30T07:41:11;100914.09;;;0.39;80.75
77867;BME280;67271;59.120;37.970;2024-01-30T07:43:38;100912.53;;;0.37;80.62
77867;BME280;67271;59.120;37.970;2024-01-30T07:46:04;100915.50;;;0.32;80.32
77867;BME280;67271;59.120;37.970;2024-01-30T07:48:33;100911.28;;;0.30;80.43
77867;BME280;67271;59.120;37.970;2024-01-30T07:51:00;100914.91;;;0.29;80.82
77867;BME280;67271;59.120;37.970;2024-01-30T07:53:26;100905.31;;;0.26;80.49
77867;BME280;67271;59.120;37.970;2024-01-30T07:55:52;100915.56;;;0.20;80.77
77867;BME280;67271;59.120;37.970;2024-01-30T07:58:18;100915.88;;;0.15;80.62
77867;BME280;67271;59.120;37.970;2024-01-30T08:00:45;100907.38;;;0.10;80.72
77867;BME280;67271;59.120;37.970;2024-01-30T08:03:11;100914.97;;;0.04;80.75
77867;BME280;67271;59.120;37.970;2024-01-30T08:05:37;100905.63;;;-0.02;81.12
77867;BME280;67271;59.120;37.970;2024-01-30T08:08:04;100913.91;;;-0.07;80.90
77867;BME280;67271;59.120;37.970;2024-01-30T08:10:30;100917.88;;;-0.12;81.17
77867;BME280;67271;59.120;37.970;2024-01-30T08:12:56;100921.59;;;-0.15;80.81
77867;BME280;67271;59.120;37.970;2024-01-30T08:15:22;100913.84;;;-0.18;81.22
77867;BME280;67271;59.120;37.970;2024-01-30T08:17:48;100904.38;;;-0.22;81.04
77867;BME280;67271;59.120;37.970;2024-01-30T08:20:14;100916.09;;;-0.24;81.01
77867;BME280;67271;59.120;37.970;2024-01-30T08:22:40;100904.81;;;-0.28;81.33
77867;BME280;67271;59.120;37.970;2024-01-30T08:25:06;100904.91;;;-0.29;80.95
77867;BME280;67271;59.120;37.970;2024-01-30T08:27:32;100919.91;;;-0.28;80.87
77867;BME280;67271;59.120;37.970;2024-01-30T08:29:58;100910.97;;;-0.27;81.13
77867;BME280;67271;59.120;37.970;2024-01-30T08:32:24;100911.84;;;-0.27;81.22
77867;BME280;67271;59.120;37.970;2024-01-30T08:34:50;100916.31;;;-0.27;80.59
77867;BME280;67271;59.120;37.970;2024-01-30T08:37:16;100922.47;;;-0.27;81.01
77867;BME280;67271;59.120;37.970;2024-01-30T08:39:43;100917.06;;;-0.25;80.68
77867;BME280;67271;59.120;37.970;2024-01-30T08:42:09;100921.19;;;-0.21;80.62
77867;BME280;67271;59.120;37.970;2024-01-30T08:44:35;100925.34;;;-0.17;80.89
77867;BME280;67271;59.120;37.970;2024-01-30T08:47:01;100923.28;;;-0.14;80.48
77867;BME280;67271;59.120;37.970;2024-01-30T08:49:28;100923.69;;;-0.07;80.29
77867;BME280;67271;59.120;37.970;2024-01-30T08:51:54;100922.63;;;-0.05;80.53
77867;BME280;67271;59.120;37.970;2024-01-30T08:54:20;100924.44;;;-0.05;80.34
77867;BME280;67271;59.120;37.970;2024-01-30T08:56:46;100929.56;;;-0.02;80.57
77867;BME280;67271;59.120;37.970;2024-01-30T08:59:12;100934.13;;;-0.04;80.55
77867;BME280;67271;59.120;37.970;2024-01-30T09:01:38;100934.13;;;-0.04;80.34
77867;BME280;67271;59.120;37.970;2024-01-30T09:04:04;100947.22;;;-0.01;80.16
77867;BME280;67271;59.120;37.970;2024-01-30T09:06:29;100943.72;;;-0.02;80.48
77867;BME280;67271;59.120;37.970;2024-01-30T09:08:56;100937.31;;;0.01;80.17
77867;BME280;67271;59.120;37.970;2024-01-30T09:11:23;100942.63;;;0.01;80.52
77867;BME280;67271;59.120;37.970;2024-01-30T09:13:49;100947.00;;;0.02;80.40
77867;BME280;67271;59.120;37.970;2024-01-30T09:16:15;100959.00;;;0.08;80.39
77867;BME280;67271;59.120;37.970;2024-01-30T09:18:41;100952.84;;;0.07;80.32
77867;BME280;67271;59.120;37.970;2024-01-30T09:21:07;100952.31;;;0.02;80.16
77867;BME280;67271;59.120;37.970;2024-01-30T09:23:33;100960.53;;;-0.01;80.43
77867;BME280;67271;59.120;37.970;2024-01-30T09:25:59;100955.22;;;-0.01;80.47
77867;BME280;67271;59.120;37.970;2024-01-30T09:28:25;100951.59;;;0.00;80.25
77867;BME280;67271;59.120;37.970;2024-01-30T09:30:52;100962.25;;;0.00;80.29
77867;BME280;67271;59.120;37.970;2024-01-30T09:33:17;100954.34;;;-0.02;80.25
77867;BME280;67271;59.120;37.970;2024-01-30T09:35:43;100948.19;;;-0.02;80.38
77867;BME280;67271;59.120;37.970;2024-01-30T09:38:09;100952.56;;;-0.01;80.02
77867;BME280;67271;59.120;37.970;2024-01-30T09:40:36;100955.94;;;0.01;79.93
77867;BME280;67271;59.120;37.970;2024-01-30T09:43:02;100951.59;;;0.00;80.42
77867;BME280;67271;59.120;37.970;2024-01-30T09:45:29;100956.91;;;0.00;80.54
77867;BME280;67271;59.120;37.970;2024-01-30T09:47:55;100948.94;;;0.00;79.96
77867;BME280;67271;59.120;37.970;2024-01-30T09:50:21;100950.41;;;0.04;79.83
77867;BME280;67271;59.120;37.970;2024-01-30T09:52:47;100948.16;;;0.11;80.06
77867;BME280;67271;59.120;37.970;2024-01-30T09:55:13;100952.63;;;0.10;79.93
77867;BME280;67271;59.120;37.970;2024-01-30T09:57:41;100956.78;;;0.14;80.16
77867;BME280;67271;59.120;37.970;2024-01-30T10:00:07;100964.63;;;0.16;79.83
77867;BME280;67271;59.120;37.970;2024-01-30T10:02:40;100960.06;;;0.18;79.89
77867;BME280;67271;59.120;37.970;2024-01-30T10:05:08;100959.84;;;0.21;79.84
77867;BME280;67271;59.120;37.970;2024-01-30T10:07:34;100964.06;;;0.23;79.52
77867;BME280;67271;59.120;37.970;2024-01-30T10:10:00;100966.00;;;0.21;79.88
77867;BME280;67271;59.120;37.970;2024-01-30T10:12:26;100966.88;;;0.22;79.58
77867;BME280;67271;59.120;37.970;2024-01-30T10:14:52;100963.34;;;0.21;79.61
77867;BME280;67271;59.120;37.970;2024-01-30T10:17:19;100953.66;;;0.20;79.66
77867;BME280;67271;59.120;37.970;2024-01-30T10:19:47;100957.28;;;0.19;79.31
77867;BME280;67271;59.120;37.970;2024-01-30T10:22:12;100963.56;;;0.18;79.85
77867;BME280;67271;59.120;37.970;2024-01-30T10:24:38;100956.22;;;0.22;79.58
77867;BME280;67271;59.120;37.970;2024-01-30T10:27:05;100959.59;;;0.24;79.59
77867;BME280;67271;59.120;37.970;2024-01-30T10:29:32;100956.84;;;0.25;79.43
77867;BME280;67271;59.120;37.970;2024-01-30T10:32:02;100975.91;;;0.19;79.54
77867;BME280;67271;59.120;37.970;2024-01-30T10:34:29;100970.78;;;0.16;79.31
77867;BME280;67271;59.120;37.970;2024-01-30T10:37:02;100963.78;;;0.15;79.30
77867;BME280;67271;59.120;37.970;2024-01-30T10:39:31;100960.06;;;0.18;79.32
77867;BME280;67271;59.120;37.970;2024-01-30T10:42:05;100960.81;;;0.20;79.14
77867;BME280;67271;59.120;37.970;2024-01-30T10:44:40;100966.00;;;0.21;79.38
77867;BME280;67271;59.120;37.970;2024-01-30T10:47:12;100969.63;;;0.20;79.18
77867;BME280;67271;59.120;37.970;2024-01-30T10:49:41;100963.34;;;0.21;79.28
77867;BME280;67271;59.120;37.970;2024-01-30T10:52:13;100964.06;;;0.23;78.70
77867;BME280;67271;59.120;37.970;2024-01-30T10:54:40;100961.53;;;0.22;79.08
77867;BME280;67271;59.120;37.970;2024-01-30T10:57:06;100953.31;;;0.25;79.33
77867;BME280;67271;59.120;37.970;2024-01-30T10:59:33;100960.25;;;0.27;79.37
77867;BME280;67271;59.120;37.970;2024-01-30T11:01:59;100963.41;;;0.32;78.85
77867;BME280;67271;59.120;37.970;2024-01-30T11:04:26;100964.16;;;0.34;79.08
77867;BME280;67271;59.120;37.970;2024-01-30T11:06:51;100970.66;;;0.30;79.17
77867;BME280;67271;59.120;37.970;2024-01-30T11:09:18;100975.75;;;0.33;79.17
77867;BME280;67271;59.120;37.970;2024-01-30T11:11:51;100966.94;;;0.33;78.79
77867;BME280;67271;59.120;37.970;2024-01-30T11:14:24;100978.09;;;0.38;78.61
77867;BME280;67271;59.120;37.970;2024-01-30T11:16:53;100978.94;;;0.38;78.71
77867;BME280;67271;59.120;37.970;2024-01-30T11:19:25;100984.06;;;0.42;78.48
77867;BME280;67271;59.120;37.970;2024-01-30T11:21:54;100981.28;;;0.43;78.59
77867;BME280;67271;59.120;37.970;2024-01-30T11:24:23;100987.56;;;0.42;78.42
77867;BME280;67271;59.120;37.970;2024-01-30T11:26:59;100989.38;;;0.42;78.72
77867;BME280;67271;59.120;37.970;2024-01-30T11:29:26;100994.91;;;0.38;78.86
77867;BME280;67271;59.120;37.970;2024-01-30T11:31:56;100991.63;;;0.35;79.04
77867;BME280;67271;59.120;37.970;2024-01-30T11:34:23;100989.06;;;0.33;78.68
77867;BME280;67271;59.120;37.970;2024-01-30T11:36:55;100988.97;;;0.35;78.59
77867;BME280;67271;59.120;37.970;2024-01-30T11:39:27;100996.09;;;0.34;78.77
77867;BME280;67271;59.120;37.970;2024-01-30T11:41:55;100990.78;;;0.34;78.51
77867;BME280;67271;59.120;37.970;2024-01-30T11:44:22;101003.13;;;0.35;78.57
77867;BME280;67271;59.120;37.970;2024-01-30T11:46:48;100993.34;;;0.36;78.92
77867;BME280;67271;59.120;37.970;2024-01-30T11:49:15;100997.81;;;0.35;78.75
77867;BME280;67271;59.120;37.970;2024-01-30T11:51:41;100994.41;;;0.33;78.64
77867;BME280;67271;59.120;37.970;2024-01-30T11:54:08;100992.78;;;0.31;78.45
77867;BME280;67271;59.120;37.970;2024-01-30T11:56:34;100995.81;;;0.26;79.05
77867;BME280;67271;59.120;37.970;2024-01-30T11:59:01;100992.28;;;0.26;78.64
77867;BME280;67271;59.120;37.970;2024-01-30T12:01:27;100988.78;;;0.25;78.89
77867;BME280;67271;59.120;37.970;2024-01-30T12:03:53;100995.06;;;0.24;79.21
77867;BME280;67271;59.120;37.970;2024-01-30T12:06:19;101002.31;;;0.22;79.12
77867;BME280;67271;59.120;37.970;2024-01-30T12:09:05;101007.09;;;0.17;79.00
77867;BME280;67271;59.120;37.970;2024-01-30T12:11:43;101011.91;;;0.12;78.88
77867;BME280;67271;59.120;37.970;2024-01-30T12:14:10;101019.38;;;0.07;79.08
77867;BME280;67271;59.120;37.970;2024-01-30T12:16:35;101027.13;;;0.10;79.00
77867;BME280;67271;59.120;37.970;2024-01-30T12:19:02;101028.19;;;0.20;79.05
77867;BME280;67271;59.120;37.970;2024-01-30T12:21:29;101027.88;;;0.12;79.02
77867;BME280;67271;59.120;37.970;2024-01-30T12:23:56;101024.91;;;0.04;79.25
77867;BME280;67271;59.120;37.970;2024-01-30T12:26:24;101036.81;;;-0.02;79.34
77867;BME280;67271;59.120;37.970;2024-01-30T12:28:53;101033.75;;;-0.08;79.48
77867;BME280;67271;59.120;37.970;2024-01-30T12:31:28;101036.94;;;-0.16;79.55
77867;BME280;67271;59.120;37.970;2024-01-30T12:33:54;101024.19;;;-0.23;79.58
77867;BME280;67271;59.120;37.970;2024-01-30T12:36:21;101032.78;;;-0.32;80.15
77867;BME280;67271;59.120;37.970;2024-01-30T12:38:48;101028.84;;;-0.40;80.40
77867;BME280;67271;59.120;37.970;2024-01-30T12:41:14;101024.91;;;-0.47;80.46
77867;BME280;67271;59.120;37.970;2024-01-30T12:43:40;101020.00;;;-0.53;80.29
77867;BME280;67271;59.120;37.970;2024-01-30T12:46:06;101023.06;;;-0.59;80.19